createdAt,value
2022-10-18T00:01:13.179Z,21.31
2022-10-18T00:03:14.510Z,21.30
2022-10-18T00:05:15.800Z,21.30
2022-10-18T00:07:17.089Z,21.29
2022-10-18T00:09:18.357Z,21.28
2022-10-18T00:11:19.647Z,21.27
2022-10-18T00:13:20.905Z,21.26
2022-10-18T00:15:22.162Z,21.26
2022-10-18T00:17:23.478Z,21.26
2022-10-18T00:19:27.182Z,21.26
2022-10-18T00:21:30.551Z,21.24
2022-10-18T00:23:31.843Z,21.24
2022-10-18T00:25:33.129Z,21.26
2022-10-18T00:27:34.393Z,21.29
2022-10-18T00:29:35.703Z,21.30
2022-10-18T00:31:37.048Z,21.31
2022-10-18T00:33:38.346Z,21.32
2022-10-18T00:35:39.611Z,21.30
2022-10-18T00:37:40.889Z,21.29
2022-10-18T00:39:42.285Z,21.31
2022-10-18T00:41:43.642Z,21.29
2022-10-18T00:43:44.907Z,21.29
2022-10-18T00:45:46.386Z,21.28
2022-10-18T00:47:47.692Z,21.29
2022-10-18T00:49:49.047Z,21.30
2022-10-18T00:51:50.325Z,21.29
2022-10-18T00:53:51.823Z,21.30
2022-10-18T00:55:53.099Z,21.33
2022-10-18T01:00:00.639Z,20.68
2022-10-18T01:02:01.954Z,21.34
2022-10-18T01:04:03.268Z,21.35
2022-10-18T01:06:04.572Z,21.35
2022-10-18T01:08:05.888Z,21.34
2022-10-18T01:10:07.160Z,21.32
2022-10-18T01:12:08.479Z,21.32
2022-10-18T01:14:09.763Z,21.36
2022-10-18T01:16:11.055Z,21.40
2022-10-18T01:18:12.326Z,21.42
2022-10-18T01:20:13.606Z,21.43
2022-10-18T01:22:14.882Z,21.43
2022-10-18T01:24:16.183Z,21.42
2022-10-18T01:26:17.513Z,21.42
2022-10-18T01:28:18.782Z,21.45
2022-10-18T01:30:20.057Z,21.45
2022-10-18T01:32:21.385Z,21.45
2022-10-18T01:34:22.652Z,21.42
2022-10-18T01:36:23.931Z,21.43
2022-10-18T01:38:25.209Z,20.55
2022-10-18T01:40:26.522Z,21.41
2022-10-18T01:42:27.858Z,21.38
2022-10-18T01:44:29.147Z,21.36
2022-10-18T01:46:30.473Z,21.32
2022-10-18T01:48:31.786Z,21.32
2022-10-18T01:50:33.103Z,21.31
2022-10-18T01:52:34.574Z,21.30
2022-10-18T01:54:35.946Z,21.29
2022-10-18T01:56:37.227Z,21.27
2022-10-18T01:58:38.547Z,21.26
2022-10-18T02:00:39.829Z,21.31
2022-10-18T02:02:41.093Z,21.31
2022-10-18T02:04:42.385Z,21.32
2022-10-18T02:06:43.674Z,21.33
2022-10-18T02:08:44.946Z,21.35
2022-10-18T02:10:46.279Z,21.42
2022-10-18T02:12:47.551Z,21.50
2022-10-18T02:14:48.859Z,21.58
2022-10-18T02:16:50.135Z,21.60
2022-10-18T02:18:51.659Z,21.65
2022-10-18T02:20:52.943Z,21.68
2022-10-18T02:22:54.782Z,21.70
2022-10-18T02:24:56.083Z,21.69
2022-10-18T02:26:57.366Z,21.70
2022-10-18T02:28:58.674Z,21.69
2022-10-18T02:30:59.926Z,21.68
2022-10-18T02:33:01.210Z,21.67
2022-10-18T02:35:02.515Z,21.64
2022-10-18T02:37:03.826Z,21.62
2022-10-18T02:39:05.098Z,21.62
2022-10-18T02:41:06.423Z,21.61
2022-10-18T02:43:07.698Z,21.63
2022-10-18T02:45:08.987Z,21.64
2022-10-18T02:47:10.630Z,21.65
2022-10-18T02:49:12.686Z,21.67
2022-10-18T02:51:14.235Z,21.69
2022-10-18T02:53:15.521Z,21.73
2022-10-18T02:55:17.741Z,21.73
2022-10-18T02:57:19.086Z,21.73
2022-10-18T02:59:20.682Z,21.70
2022-10-18T03:01:22.031Z,21.67
2022-10-18T03:03:23.335Z,21.66
2022-10-18T03:05:24.645Z,20.85
2022-10-18T03:07:25.930Z,21.65
2022-10-18T03:09:27.199Z,21.65
2022-10-18T03:11:28.498Z,21.67
2022-10-18T03:15:36.459Z,21.69
2022-10-18T03:17:37.825Z,21.68
2022-10-18T03:19:39.151Z,21.66
2022-10-18T03:21:40.441Z,21.65
2022-10-18T03:23:42.292Z,21.62
2022-10-18T03:25:45.701Z,21.61
2022-10-18T03:27:47.792Z,21.62
2022-10-18T03:29:49.077Z,21.62
2022-10-18T03:31:50.360Z,21.64
2022-10-18T03:33:51.647Z,21.65
2022-10-18T03:35:52.915Z,21.72
2022-10-18T03:37:54.198Z,21.76
2022-10-18T03:39:55.457Z,21.80
2022-10-18T03:41:56.780Z,21.85
2022-10-18T03:43:58.052Z,21.86
2022-10-18T03:45:59.358Z,21.90
2022-10-18T03:48:00.618Z,21.95
2022-10-18T03:50:01.902Z,21.96
2022-10-18T03:52:03.324Z,21.99
2022-10-18T03:54:04.617Z,22.02
2022-10-18T03:56:05.926Z,22.01
2022-10-18T03:58:07.242Z,21.99
2022-10-18T04:00:08.517Z,21.97
2022-10-18T04:02:09.782Z,21.95
2022-10-18T04:04:11.151Z,21.92
2022-10-18T04:06:13.196Z,21.92
2022-10-18T04:08:14.460Z,21.87
2022-10-18T04:10:15.784Z,21.85
2022-10-18T04:12:17.236Z,21.82
2022-10-18T04:14:18.562Z,21.79
2022-10-18T04:16:19.826Z,21.77
2022-10-18T04:18:21.103Z,21.76
2022-10-18T04:20:22.374Z,21.74
2022-10-18T04:22:23.698Z,21.70
2022-10-18T04:24:24.966Z,21.67
2022-10-18T04:26:26.244Z,21.67
2022-10-18T04:28:27.589Z,21.71
2022-10-18T04:30:28.878Z,21.80
2022-10-18T04:32:30.221Z,21.84
2022-10-18T04:34:31.649Z,21.87
2022-10-18T04:36:33.027Z,21.90
2022-10-18T04:38:34.360Z,21.92
2022-10-18T04:40:35.653Z,21.95
2022-10-18T04:42:36.926Z,21.97
2022-10-18T04:44:38.797Z,21.97
2022-10-18T04:46:40.075Z,21.99
2022-10-18T04:48:41.359Z,22.02
2022-10-18T04:50:42.634Z,22.02
2022-10-18T04:52:43.955Z,22.00
2022-10-18T04:54:45.262Z,21.99
2022-10-18T04:56:46.801Z,21.99
2022-10-18T04:58:48.125Z,21.96
2022-10-18T05:00:49.418Z,21.91
2022-10-18T05:02:50.694Z,21.87
2022-10-18T05:04:52.138Z,21.83
2022-10-18T05:06:53.410Z,21.82
2022-10-18T05:08:54.751Z,21.80
2022-10-18T05:10:56.165Z,21.82
2022-10-18T05:12:57.495Z,21.79
2022-10-18T05:14:58.785Z,21.79
2022-10-18T05:17:00.102Z,21.82
2022-10-18T05:19:01.387Z,21.85
2022-10-18T05:21:02.645Z,21.84
2022-10-18T05:23:03.972Z,21.05
2022-10-18T05:25:05.228Z,21.94
2022-10-18T05:27:06.531Z,21.99
2022-10-18T05:29:07.901Z,22.02
2022-10-18T05:31:09.266Z,22.08
2022-10-18T05:33:10.579Z,22.06
2022-10-18T05:35:12.079Z,22.03
2022-10-18T05:37:13.357Z,21.99
2022-10-18T05:39:14.679Z,21.94
2022-10-18T05:41:15.982Z,21.91
2022-10-18T05:43:20.150Z,21.90
2022-10-18T05:45:21.420Z,21.91
2022-10-18T05:47:22.809Z,21.90
2022-10-18T05:49:24.194Z,21.99
2022-10-18T05:51:25.507Z,21.97
2022-10-18T05:53:42.185Z,21.91
2022-10-18T05:55:43.514Z,21.11
2022-10-18T05:57:44.787Z,20.43
2022-10-18T05:59:46.238Z,20.23
2022-10-18T06:01:47.495Z,20.13
2022-10-18T06:03:48.784Z,20.92
2022-10-18T06:05:50.120Z,21.39
2022-10-18T06:07:51.432Z,21.62
2022-10-18T06:09:52.758Z,21.71
2022-10-18T06:11:54.092Z,21.74
2022-10-18T06:13:55.483Z,21.75
2022-10-18T06:15:57.532Z,21.53
2022-10-18T06:17:59.196Z,21.80
2022-10-18T06:20:00.514Z,21.84
2022-10-18T06:22:02.000Z,21.85
2022-10-18T06:24:03.399Z,21.85
2022-10-18T06:26:04.687Z,21.87
2022-10-18T06:28:07.929Z,21.87
2022-10-18T06:30:11.526Z,21.90
2022-10-18T06:32:12.808Z,21.93
2022-10-18T06:34:14.110Z,21.93
2022-10-18T06:36:15.437Z,21.93
2022-10-18T06:38:16.716Z,22.02
2022-10-18T06:40:18.005Z,22.07
2022-10-18T06:42:21.901Z,22.16
2022-10-18T06:44:24.048Z,22.06
2022-10-18T06:46:25.322Z,22.01
2022-10-18T06:48:26.636Z,21.98
2022-10-18T06:50:27.944Z,21.94
2022-10-18T06:52:29.608Z,21.93
2022-10-18T06:54:30.990Z,21.90
2022-10-18T06:56:32.261Z,21.90
2022-10-18T06:58:33.625Z,21.89
2022-10-18T07:00:34.899Z,21.89
2022-10-18T07:02:37.481Z,21.94
2022-10-18T07:04:38.803Z,22.00
2022-10-18T07:06:40.114Z,22.00
2022-10-18T07:08:41.423Z,21.97
2022-10-18T07:10:42.735Z,21.95
2022-10-18T07:12:44.054Z,21.93
2022-10-18T07:14:46.060Z,21.92
2022-10-18T07:16:47.472Z,22.09
2022-10-18T07:18:49.625Z,21.99
2022-10-18T07:20:50.910Z,21.83
2022-10-18T07:22:52.215Z,21.70
2022-10-18T07:24:53.477Z,21.61
2022-10-18T07:26:54.806Z,21.55
2022-10-18T07:29:00.716Z,21.50
2022-10-18T07:31:05.170Z,21.46
2022-10-18T07:33:07.971Z,21.42
2022-10-18T07:35:09.293Z,21.41
2022-10-18T07:37:10.573Z,21.42
2022-10-18T07:39:11.969Z,21.44
2022-10-18T07:41:13.290Z,21.44
2022-10-18T07:43:14.555Z,21.44
2022-10-18T07:45:15.826Z,21.43
2022-10-18T07:47:17.134Z,21.40
2022-10-18T07:49:18.410Z,21.40
2022-10-18T07:51:19.734Z,21.39
2022-10-18T07:53:21.091Z,21.38
2022-10-18T07:55:22.387Z,21.38
2022-10-18T07:57:23.692Z,21.36
2022-10-18T07:59:25.235Z,21.34
2022-10-18T08:01:26.589Z,21.32
2022-10-18T08:03:27.870Z,21.30
2022-10-18T08:05:29.248Z,21.27
2022-10-18T08:07:31.058Z,21.26
2022-10-18T08:09:32.587Z,21.24
2022-10-18T08:11:34.017Z,21.21
2022-10-18T08:13:35.282Z,21.19
2022-10-18T08:15:36.558Z,21.17
2022-10-18T08:17:38.016Z,21.13
2022-10-18T08:19:44.645Z,21.12
2022-10-18T08:21:54.284Z,21.09
2022-10-18T08:23:55.618Z,21.07
2022-10-18T08:25:56.908Z,21.05
2022-10-18T08:27:58.527Z,21.02
2022-10-18T08:30:01.921Z,21.01
2022-10-18T08:32:03.414Z,21.00
2022-10-18T08:34:04.718Z,21.01
2022-10-18T08:36:06.073Z,20.99
2022-10-18T08:38:16.397Z,20.98
2022-10-18T08:40:20.383Z,20.98
2022-10-18T08:42:21.674Z,20.95
2022-10-18T08:44:23.010Z,20.94
2022-10-18T08:46:24.283Z,20.92
2022-10-18T08:48:25.566Z,20.90
2022-10-18T08:50:27.042Z,20.88
2022-10-18T08:52:28.368Z,20.86
2022-10-18T08:54:29.715Z,20.85
2022-10-18T08:56:30.982Z,20.82
2022-10-18T08:58:32.312Z,20.81
2022-10-18T09:00:34.895Z,20.80
2022-10-18T09:02:36.278Z,20.78
2022-10-18T09:04:37.626Z,20.76
2022-10-18T09:06:38.922Z,20.74
2022-10-18T09:08:40.252Z,20.73
2022-10-18T09:10:41.523Z,20.71
2022-10-18T09:12:43.738Z,20.70
2022-10-18T09:14:45.414Z,20.69
2022-10-18T09:16:46.719Z,21.05
2022-10-18T09:18:48.118Z,21.44
2022-10-18T09:20:49.993Z,21.65
2022-10-18T09:22:51.261Z,21.40
2022-10-18T09:24:52.573Z,21.71
2022-10-18T09:26:53.916Z,22.01
2022-10-18T09:28:55.279Z,22.14
2022-10-18T09:30:58.738Z,22.13
2022-10-18T09:33:00.995Z,22.27
2022-10-18T09:35:02.283Z,22.52
2022-10-18T09:37:03.710Z,22.40
2022-10-18T09:39:05.025Z,22.88
2022-10-18T09:41:06.357Z,22.57
2022-10-18T09:43:07.635Z,22.68
2022-10-18T09:45:08.898Z,22.83
2022-10-18T09:47:13.356Z,22.83
2022-10-18T09:49:17.202Z,22.90
2022-10-18T09:51:22.033Z,22.82
2022-10-18T09:53:23.305Z,22.73
2022-10-18T09:55:24.619Z,22.38
2022-10-18T09:57:25.886Z,22.29
2022-10-18T09:59:27.211Z,22.01
2022-10-18T10:01:28.531Z,21.74
2022-10-18T10:03:29.815Z,21.89
2022-10-18T10:05:31.120Z,21.95
2022-10-18T10:07:34.792Z,22.12
2022-10-18T10:09:36.628Z,22.16
2022-10-18T10:11:37.983Z,22.15
2022-10-18T10:13:39.294Z,22.16
2022-10-18T10:15:42.561Z,22.18
2022-10-18T10:17:44.191Z,22.19
2022-10-18T10:19:45.511Z,22.26
2022-10-18T10:21:46.978Z,22.39
2022-10-18T10:23:48.263Z,22.45
2022-10-18T10:25:49.547Z,22.44
2022-10-18T10:27:50.817Z,22.33
2022-10-18T10:29:53.771Z,22.45
2022-10-18T10:31:55.160Z,22.45
2022-10-18T10:33:57.174Z,22.55
2022-10-18T10:35:58.471Z,22.57
2022-10-18T10:37:59.774Z,22.64
2022-10-18T10:40:17.876Z,22.66
2022-10-18T10:42:20.469Z,22.70
2022-10-18T10:44:21.817Z,22.34
2022-10-18T10:46:23.358Z,22.12
2022-10-18T10:48:24.638Z,21.97
2022-10-18T10:50:26.024Z,21.92
2022-10-18T10:52:28.338Z,22.17
2022-10-18T10:54:30.219Z,22.36
2022-10-18T10:56:31.493Z,22.39
2022-10-18T10:58:32.801Z,22.10
2022-10-18T11:00:34.141Z,22.27
2022-10-18T11:02:35.655Z,22.50
2022-10-18T11:04:38.508Z,22.53
2022-10-18T11:06:39.905Z,22.60
2022-10-18T11:08:41.275Z,22.66
2022-10-18T11:10:42.727Z,22.74
2022-10-18T11:12:44.138Z,22.77
2022-10-18T11:14:45.461Z,22.82
2022-10-18T11:16:46.771Z,22.84
2022-10-18T11:18:48.047Z,22.82
2022-10-18T11:20:49.490Z,22.77
2022-10-18T11:22:50.788Z,22.82
2022-10-18T11:24:52.058Z,22.84
2022-10-18T11:26:53.973Z,22.83
2022-10-18T11:28:55.367Z,22.79
2022-10-18T11:30:58.850Z,22.40
2022-10-18T11:33:00.147Z,22.10
2022-10-18T11:35:01.467Z,21.91
2022-10-18T11:37:26.413Z,21.74
2022-10-18T11:39:24.521Z,21.66
2022-10-18T11:41:26.115Z,21.61
2022-10-18T11:43:34.424Z,21.57
2022-10-18T11:45:48.742Z,21.51
2022-10-18T11:47:53.536Z,21.51
2022-10-18T11:49:57.067Z,21.46
2022-10-18T11:52:07.984Z,21.43
2022-10-18T11:54:10.203Z,21.40
2022-10-18T11:56:11.526Z,21.37
2022-10-18T11:58:12.848Z,21.48
2022-10-18T12:00:14.154Z,21.90
2022-10-18T12:02:15.523Z,22.31
2022-10-18T12:04:17.897Z,22.33
2022-10-18T12:06:19.200Z,22.41
2022-10-18T12:08:20.528Z,22.31
2022-10-18T12:10:31.570Z,21.93
2022-10-18T12:12:43.141Z,21.70
2022-10-18T12:14:44.418Z,21.65
2022-10-18T12:16:51.517Z,21.62
2022-10-18T12:20:59.947Z,21.61
2022-10-18T12:23:01.538Z,21.60
2022-10-18T12:25:04.163Z,21.58
2022-10-18T12:27:05.431Z,21.55
2022-10-18T12:29:06.812Z,21.52
2022-10-18T12:31:08.124Z,21.51
2022-10-18T12:33:27.167Z,21.49
2022-10-18T12:35:30.294Z,21.46
2022-10-18T12:37:31.913Z,21.43
2022-10-18T12:39:43.779Z,21.70
2022-10-18T12:41:51.882Z,21.92
2022-10-18T12:43:53.239Z,22.11
2022-10-18T12:45:54.887Z,22.37
2022-10-18T12:47:56.212Z,22.35
2022-10-18T12:49:57.527Z,22.07
2022-10-18T12:52:01.743Z,22.34
2022-10-18T12:54:03.102Z,22.37
2022-10-18T12:56:04.405Z,22.46
2022-10-18T12:58:05.812Z,22.46
2022-10-18T13:00:07.111Z,22.46
2022-10-18T13:02:09.322Z,22.53
2022-10-18T13:04:10.599Z,22.62
2022-10-18T13:06:11.946Z,22.55
2022-10-18T13:08:13.230Z,22.63
2022-10-18T13:10:14.992Z,22.58
2022-10-18T13:12:16.345Z,22.72
2022-10-18T13:14:17.711Z,22.79
2022-10-18T13:16:19.017Z,22.73
2022-10-18T13:18:20.329Z,22.58
2022-10-18T13:20:27.095Z,22.49
2022-10-18T13:22:29.167Z,22.46
2022-10-18T13:24:30.442Z,22.44
2022-10-18T13:26:32.040Z,22.47
2022-10-18T13:28:33.385Z,22.49
2022-10-18T13:30:34.753Z,22.55
2022-10-18T13:32:36.343Z,22.47
2022-10-18T13:34:39.103Z,22.32
2022-10-18T13:36:40.515Z,22.18
2022-10-18T13:38:41.877Z,22.10
2022-10-18T13:40:46.118Z,22.05
2022-10-18T13:42:47.395Z,22.02
2022-10-18T13:44:48.732Z,22.00
2022-10-18T13:46:50.041Z,21.97
2022-10-18T13:48:51.368Z,21.94
2022-10-18T13:50:52.662Z,21.93
2022-10-18T13:52:53.970Z,21.94
2022-10-18T13:54:55.264Z,21.96
2022-10-18T13:56:56.618Z,21.99
2022-10-18T13:59:13.142Z,22.00
2022-10-18T14:01:15.298Z,21.99
2022-10-18T14:03:37.649Z,21.97
2022-10-18T14:05:37.988Z,21.94
2022-10-18T14:07:39.279Z,21.93
2022-10-18T14:09:44.591Z,21.91
2022-10-18T14:11:46.476Z,21.90
2022-10-18T14:13:47.806Z,21.88
2022-10-18T14:15:49.178Z,21.86
2022-10-18T14:17:50.505Z,21.85
2022-10-18T14:19:51.862Z,21.84
2022-10-18T14:21:53.132Z,21.82
2022-10-18T14:23:54.412Z,21.80
2022-10-18T14:25:55.735Z,21.83
2022-10-18T14:27:57.023Z,21.87
2022-10-18T14:29:58.310Z,21.87
2022-10-18T14:31:59.627Z,21.87
2022-10-18T14:34:00.969Z,21.85
2022-10-18T14:36:02.250Z,21.82
2022-10-18T14:38:03.578Z,21.79
2022-10-18T14:40:04.878Z,21.78
2022-10-18T14:42:09.179Z,21.76
2022-10-18T14:44:13.410Z,21.68
2022-10-18T14:46:14.692Z,21.60
2022-10-18T14:48:16.026Z,20.90
2022-10-18T14:50:17.330Z,21.51
2022-10-18T14:52:18.768Z,22.24
2022-10-18T14:54:20.091Z,22.38
2022-10-18T14:56:21.430Z,22.22
2022-10-18T14:58:23.280Z,22.20
2022-10-18T15:00:25.589Z,22.39
2022-10-18T15:02:26.897Z,22.50
2022-10-18T15:04:33.230Z,22.84
2022-10-18T15:06:34.589Z,22.67
2022-10-18T15:08:35.953Z,22.46
2022-10-18T15:10:37.597Z,22.38
2022-10-18T15:13:04.360Z,22.35
2022-10-18T15:15:00.298Z,22.34
2022-10-18T15:17:02.461Z,22.40
2022-10-18T15:19:03.808Z,22.56
2022-10-18T15:23:06.386Z,22.57
2022-10-18T15:25:07.757Z,22.57
2022-10-18T15:27:09.316Z,22.61
2022-10-18T15:29:10.635Z,22.66
2022-10-18T15:31:13.057Z,22.76
2022-10-18T15:33:14.356Z,22.66
2022-10-18T15:35:15.770Z,22.59
2022-10-18T15:37:17.211Z,22.58
2022-10-18T15:39:18.526Z,22.56
2022-10-18T15:41:19.836Z,22.54
2022-10-18T15:43:21.145Z,22.57
2022-10-18T15:45:22.415Z,22.54
2022-10-18T15:47:24.943Z,22.58
2022-10-18T15:49:26.418Z,22.61
2022-10-18T15:51:27.717Z,22.62
2022-10-18T15:53:30.391Z,22.73
2022-10-18T15:55:31.740Z,22.75
2022-10-18T15:57:33.410Z,22.78
2022-10-18T15:59:35.011Z,22.76
2022-10-18T16:01:36.497Z,22.78
2022-10-18T16:03:38.656Z,22.81
2022-10-18T16:05:39.959Z,22.87
2022-10-18T16:07:41.233Z,22.87
2022-10-18T16:09:42.725Z,22.93
2022-10-18T16:11:44.032Z,23.09
2022-10-18T16:13:45.350Z,22.86
2022-10-18T16:15:46.685Z,22.49
2022-10-18T16:17:47.952Z,22.51
2022-10-18T16:19:49.222Z,22.64
2022-10-18T16:21:50.565Z,22.76
2022-10-18T16:23:51.913Z,22.71
2022-10-18T16:25:53.234Z,22.70
2022-10-18T16:27:54.514Z,23.10
2022-10-18T16:29:55.778Z,23.22
2022-10-18T16:31:58.293Z,23.18
2022-10-18T16:33:59.798Z,23.24
2022-10-18T16:36:01.153Z,23.26
2022-10-18T16:38:02.470Z,23.25
2022-10-18T16:40:03.750Z,23.29
2022-10-18T16:42:05.077Z,23.28
2022-10-18T16:44:06.383Z,23.28
2022-10-18T16:46:07.979Z,23.21
2022-10-18T16:48:09.306Z,23.13
2022-10-18T16:50:13.506Z,22.78
2022-10-18T16:52:14.826Z,22.72
2022-10-18T16:54:16.127Z,22.87
2022-10-18T16:56:20.332Z,23.01
2022-10-18T17:00:25.181Z,23.07
2022-10-18T17:02:26.481Z,23.14
2022-10-18T17:04:29.158Z,23.20
2022-10-18T17:06:33.117Z,23.23
2022-10-18T17:08:34.472Z,22.97
2022-10-18T17:10:35.888Z,22.60
2022-10-18T17:12:37.222Z,22.38
2022-10-18T17:14:38.516Z,22.28
2022-10-18T17:16:44.545Z,22.19
2022-10-18T17:18:48.383Z,22.11
2022-10-18T17:20:49.662Z,22.07
2022-10-18T17:22:53.639Z,22.02
2022-10-18T17:24:54.959Z,21.99
2022-10-18T17:26:56.219Z,21.95
2022-10-18T17:28:57.641Z,21.96
2022-10-18T17:30:59.066Z,21.96
2022-10-18T17:33:00.386Z,21.96
2022-10-18T17:35:01.690Z,21.95
2022-10-18T17:37:02.961Z,21.96
2022-10-18T17:39:04.245Z,21.93
2022-10-18T17:41:05.523Z,21.93
2022-10-18T17:43:09.278Z,21.92
2022-10-18T17:45:10.583Z,22.61
2022-10-18T17:47:11.863Z,22.96
2022-10-18T17:49:14.114Z,22.96
2022-10-18T17:51:15.386Z,22.75
2022-10-18T17:53:18.420Z,22.70
2022-10-18T17:55:19.740Z,22.68
2022-10-18T17:57:21.032Z,22.73
2022-10-18T17:59:22.354Z,22.81
2022-10-18T18:01:23.634Z,22.83
2022-10-18T18:03:24.980Z,23.04
2022-10-18T18:05:28.112Z,23.24
2022-10-18T18:07:29.386Z,23.21
2022-10-18T18:09:30.847Z,23.20
2022-10-18T18:11:32.181Z,23.20
2022-10-18T18:13:33.518Z,23.06
2022-10-18T18:15:37.843Z,23.02
2022-10-18T18:17:56.842Z,22.78
2022-10-18T18:19:58.842Z,22.57
2022-10-18T18:22:03.672Z,22.72
2022-10-18T18:24:05.068Z,22.83
2022-10-18T18:26:06.344Z,22.88
2022-10-18T18:28:07.847Z,22.91
2022-10-18T18:30:09.244Z,22.88
2022-10-18T18:32:10.664Z,22.89
2022-10-18T18:34:12.021Z,22.86
2022-10-18T18:36:13.352Z,22.90
2022-10-18T18:38:14.672Z,22.99
2022-10-18T18:40:18.715Z,23.03
2022-10-18T18:42:20.106Z,23.02
2022-10-18T18:44:21.643Z,23.03
2022-10-18T18:46:22.928Z,23.03
2022-10-18T18:48:24.223Z,22.22
2022-10-18T18:50:28.553Z,23.06
2022-10-18T18:52:29.995Z,23.02
2022-10-18T18:54:31.707Z,23.04
2022-10-18T18:56:33.201Z,23.29
2022-10-18T18:58:34.473Z,23.30
2022-10-18T19:00:39.162Z,23.28
2022-10-18T19:02:43.336Z,23.30
2022-10-18T19:04:44.663Z,23.33
2022-10-18T19:06:49.158Z,23.39
2022-10-18T19:08:50.538Z,23.32
2022-10-18T19:10:51.812Z,23.41
2022-10-18T19:12:53.105Z,22.65
2022-10-18T19:14:54.459Z,22.94
2022-10-18T19:16:57.450Z,22.80
2022-10-18T19:18:58.865Z,22.92
2022-10-18T19:21:00.281Z,23.00
2022-10-18T19:23:01.552Z,23.00
2022-10-18T19:25:02.896Z,23.03
2022-10-18T19:27:04.178Z,23.04
2022-10-18T19:29:05.585Z,23.40
2022-10-18T19:31:07.633Z,23.41
2022-10-18T19:33:09.767Z,23.28
2022-10-18T19:35:11.075Z,23.34
2022-10-18T19:37:12.362Z,23.33
2022-10-18T19:39:13.723Z,23.32
2022-10-18T19:41:15.044Z,23.26
2022-10-18T19:43:22.261Z,23.28
2022-10-18T19:45:23.565Z,23.09
2022-10-18T19:47:24.842Z,22.81
2022-10-18T19:49:26.221Z,22.91
2022-10-18T19:51:28.524Z,23.06
2022-10-18T19:53:29.991Z,23.15
2022-10-18T19:55:31.271Z,23.14
2022-10-18T19:57:32.550Z,23.23
2022-10-18T19:59:35.925Z,23.40
2022-10-18T20:01:37.472Z,23.36
2022-10-18T20:03:38.833Z,23.76
2022-10-18T20:05:42.931Z,23.60
2022-10-18T20:07:45.505Z,23.63
2022-10-18T20:09:48.014Z,23.41
2022-10-18T20:11:49.327Z,23.18
2022-10-18T20:13:50.635Z,23.11
2022-10-18T20:15:51.966Z,23.12
2022-10-18T20:17:53.302Z,23.09
2022-10-18T20:19:54.757Z,23.13
2022-10-18T20:21:57.774Z,23.16
2022-10-18T20:23:59.051Z,23.16
2022-10-18T20:26:00.359Z,23.15
2022-10-18T20:28:01.674Z,23.05
2022-10-18T20:30:05.324Z,22.79
2022-10-18T20:32:10.134Z,22.83
2022-10-18T20:34:11.486Z,22.97
2022-10-18T20:36:12.783Z,23.05
2022-10-18T20:38:14.120Z,23.10
2022-10-18T20:40:15.406Z,23.13
2022-10-18T20:42:16.724Z,23.37
2022-10-18T20:44:19.601Z,23.27
2022-10-18T20:46:20.962Z,23.18
2022-10-18T20:48:22.238Z,23.18
2022-10-18T20:50:23.534Z,23.19
2022-10-18T20:52:24.866Z,23.25
2022-10-18T20:54:26.231Z,23.21
2022-10-18T20:56:27.611Z,23.19
2022-10-18T20:58:28.903Z,23.18
2022-10-18T21:00:30.167Z,23.23
2022-10-18T21:02:31.425Z,23.04
2022-10-18T21:04:32.695Z,22.73
2022-10-18T21:06:34.350Z,22.62
2022-10-18T21:08:35.624Z,22.98
2022-10-18T21:10:36.920Z,22.91
2022-10-18T21:12:38.496Z,22.88
2022-10-18T21:14:39.926Z,22.91
2022-10-18T21:16:41.246Z,23.26
2022-10-18T21:18:42.553Z,24.01
2022-10-18T21:20:43.824Z,23.55
2022-10-18T21:22:45.151Z,23.79
2022-10-18T21:24:46.594Z,23.42
2022-10-18T21:26:48.251Z,23.17
2022-10-18T21:28:50.924Z,23.13
2022-10-18T21:30:52.249Z,23.05
2022-10-18T21:32:53.651Z,23.13
2022-10-18T21:34:55.150Z,23.04
2022-10-18T21:36:56.480Z,23.00
2022-10-18T21:38:57.752Z,22.99
2022-10-18T21:40:59.111Z,23.06
2022-10-18T21:43:00.403Z,23.24
2022-10-18T21:45:01.700Z,23.09
2022-10-18T21:47:02.959Z,23.08
2022-10-18T21:49:04.294Z,23.10
2022-10-18T21:51:05.569Z,22.93
2022-10-18T21:53:06.882Z,22.59
2022-10-18T21:55:08.373Z,22.75
2022-10-18T21:57:09.687Z,23.02
2022-10-18T21:59:11.001Z,22.95
2022-10-18T22:01:12.511Z,23.03
2022-10-18T22:03:13.831Z,22.30
2022-10-18T22:05:15.179Z,22.98
2022-10-18T22:07:16.455Z,22.93
2022-10-18T22:09:17.785Z,22.89
2022-10-18T22:11:19.067Z,22.89
2022-10-18T22:13:20.347Z,22.91
2022-10-18T22:15:21.700Z,22.95
2022-10-18T22:17:23.660Z,22.96
2022-10-18T22:19:24.969Z,22.93
2022-10-18T22:21:26.239Z,22.96
2022-10-18T22:23:27.510Z,22.99
2022-10-18T22:25:28.787Z,23.18
2022-10-18T22:27:30.306Z,23.30
2022-10-18T22:29:31.783Z,22.29
2022-10-18T22:31:33.058Z,22.72
2022-10-18T22:33:34.390Z,22.76
2022-10-18T22:35:35.654Z,22.87
2022-10-18T22:37:37.027Z,22.91
2022-10-18T22:39:38.387Z,22.94
2022-10-18T22:41:39.686Z,23.01
2022-10-18T22:43:41.027Z,23.02
2022-10-18T22:45:42.519Z,23.10
2022-10-18T22:47:43.796Z,23.04
2022-10-18T22:49:45.146Z,23.06
2022-10-18T22:51:46.443Z,23.03
2022-10-18T22:53:47.709Z,23.02
2022-10-18T22:55:49.012Z,23.20
2022-10-18T22:57:50.318Z,23.11
2022-10-18T22:59:51.611Z,23.08
2022-10-18T23:01:52.932Z,23.07
2022-10-18T23:03:54.411Z,23.02
2022-10-18T23:05:55.742Z,23.03
2022-10-18T23:07:57.073Z,23.01
2022-10-18T23:09:58.347Z,23.09
2022-10-18T23:11:59.623Z,21.65
2022-10-18T23:14:00.950Z,20.67
2022-10-18T23:16:04.497Z,21.14
2022-10-18T23:18:06.200Z,21.62
2022-10-18T23:20:07.485Z,21.83
2022-10-18T23:22:08.974Z,21.89
2022-10-18T23:24:10.295Z,21.92
2022-10-18T23:26:11.625Z,21.93
2022-10-18T23:28:12.943Z,21.91
2022-10-18T23:30:14.285Z,21.89
2022-10-18T23:32:15.618Z,21.86
2022-10-18T23:34:16.911Z,21.84
2022-10-18T23:36:18.398Z,21.80
2022-10-18T23:38:19.677Z,21.79
2022-10-18T23:40:20.957Z,21.79
2022-10-18T23:42:22.263Z,21.80
2022-10-18T23:44:23.586Z,21.80
2022-10-18T23:46:24.910Z,21.83
2022-10-18T23:48:26.354Z,21.84
2022-10-18T23:50:27.631Z,21.84
2022-10-18T23:52:28.912Z,21.86
2022-10-18T23:54:30.263Z,21.89
2022-10-18T23:56:31.537Z,21.90
2022-10-18T23:58:32.817Z,21.88
